Terminal Aerodrome Forecast
Issued by NWS

Current Version | Previous Version | Text Only | Print | Product List | Glossary On
Versions: 1 2 3 4 5 6 7 8 9 10 11 12 13 14
000
FTUS46 KLOX 271100
TAFBUR
TAF
KBUR 271132Z 2712/2812 VRB03KT P6SM BKN010
     FM271900 17008KT P6SM SCT020
     FM280300 VRB03KT P6SM BKN025=

USA.gov is the U.S. government's official web portal to all federal, state and local government web resources and services.